sensor_id;sensor_type;location;lat;lon;timestamp;pressure;altitude;pressure_sealevel;temperature;humidity
56928;BME280;60850;52.502;13.426;2023-05-24T00:00:09;101328.38;;;11.32;100.00
56928;BME280;60850;52.502;13.426;2023-05-24T00:02:57;101343.53;;;11.32;100.00
56928;BME280;60850;52.502;13.426;2023-05-24T00:05:24;101341.81;;;11.29;100.00
56928;BME280;60850;52.502;13.426;2023-05-24T00:07:51;101345.44;;;11.25;100.00
56928;BME280;60850;52.502;13.426;2023-05-24T00:10:18;101343.66;;;11.24;100.00
56928;BME280;60850;52.502;13.426;2023-05-24T00:12:46;101342.78;;;11.23;100.00
56928;BME280;60850;52.502;13.426;2023-05-24T00:15:13;101343.72;;;11.22;100.00
56928;BME280;60850;52.502;13.426;2023-05-24T00:17:40;101354.28;;;11.27;100.00
56928;BME280;60850;52.502;13.426;2023-05-24T00:20:08;101348.81;;;11.35;100.00
56928;BME280;60850;52.502;13.426;2023-05-24T00:22:36;101340.69;;;11.39;100.00
56928;BME280;60850;52.502;13.426;2023-05-24T00:25:04;101346.88;;;11.43;100.00
56928;BME280;60850;52.502;13.426;2023-05-24T00:27:31;101345.94;;;11.44;100.00
56928;BME280;60850;52.502;13.426;2023-05-24T00:30:00;101346.88;;;11.41;100.00
56928;BME280;60850;52.502;13.426;2023-05-24T00:32:26;101354.16;;;11.33;100.00
56928;BME280;60850;52.502;13.426;2023-05-24T00:34:53;101358.88;;;11.19;100.00
56928;BME280;60850;52.502;13.426;2023-05-24T00:37:20;101351.13;;;11.07;100.00
56928;BME280;60850;52.502;13.426;2023-05-24T00:39:48;101355.78;;;10.95;100.00
56928;BME280;60850;52.502;13.426;2023-05-24T00:42:15;101348.69;;;10.94;100.00
56928;BME280;60850;52.502;13.426;2023-05-24T00:44:42;101347.81;;;10.94;100.00
56928;BME280;60850;52.502;13.426;2023-05-24T00:47:10;101341.59;;;10.93;100.00
56928;BME280;60850;52.502;13.426;2023-05-24T00:49:37;101347.84;;;10.91;100.00
56928;BME280;60850;52.502;13.426;2023-05-24T00:52:05;101353.19;;;10.91;100.00
56928;BME280;60850;52.502;13.426;2023-05-24T00:54:33;101352.31;;;10.90;100.00
56928;BME280;60850;52.502;13.426;2023-05-24T00:57:00;101355.84;;;10.92;100.00
56928;BME280;60850;52.502;13.426;2023-05-24T00:59:27;101356.63;;;10.97;100.00
56928;BME280;60850;52.502;13.426;2023-05-24T01:01:54;101348.50;;;11.04;100.00
56928;BME280;60850;52.502;13.426;2023-05-24T01:04:23;101344.81;;;11.11;100.00
56928;BME280;60850;52.502;13.426;2023-05-24T01:06:59;101342.06;;;11.15;100.00
56928;BME280;60850;52.502;13.426;2023-05-24T01:09:35;101347.25;;;11.23;100.00
56928;BME280;60850;52.502;13.426;2023-05-24T01:12:16;101346.22;;;11.30;100.00
56928;BME280;60850;52.502;13.426;2023-05-24T01:14:53;101357.66;;;11.37;100.00
56928;BME280;60850;52.502;13.426;2023-05-24T01:17:30;101345.19;;;11.37;100.00
56928;BME280;60850;52.502;13.426;2023-05-24T01:20:01;101353.09;;;11.43;100.00
56928;BME280;60850;52.502;13.426;2023-05-24T01:22:43;101350.25;;;11.51;100.00
56928;BME280;60850;52.502;13.426;2023-05-24T01:25:22;101351.13;;;11.51;100.00
56928;BME280;60850;52.502;13.426;2023-05-24T01:27:54;101344.78;;;11.55;100.00
56928;BME280;60850;52.502;13.426;2023-05-24T01:30:22;101349.25;;;11.57;100.00
56928;BME280;60850;52.502;13.426;2023-05-24T01:32:49;101350.06;;;11.60;100.00
56928;BME280;60850;52.502;13.426;2023-05-24T01:35:16;101353.63;;;11.59;100.00
56928;BME280;60850;52.502;13.426;2023-05-24T01:37:43;101349.22;;;11.58;100.00
56928;BME280;60850;52.502;13.426;2023-05-24T01:40:11;101358.22;;;11.52;100.00
56928;BME280;60850;52.502;13.426;2023-05-24T01:42:43;101364.53;;;11.48;100.00
56928;BME280;60850;52.502;13.426;2023-05-24T01:45:17;101357.38;;;11.50;100.00
56928;BME280;60850;52.502;13.426;2023-05-24T01:47:56;101359.19;;;11.50;100.00
56928;BME280;60850;52.502;13.426;2023-05-24T01:50:27;101356.44;;;11.53;100.00
56928;BME280;60850;52.502;13.426;2023-05-24T01:52:58;101359.09;;;11.53;100.00
56928;BME280;60850;52.502;13.426;2023-05-24T01:55:30;101363.56;;;11.52;100.00
56928;BME280;60850;52.502;13.426;2023-05-24T01:58:01;101358.19;;;11.54;100.00
56928;BME280;60850;52.502;13.426;2023-05-24T02:00:32;101362.59;;;11.57;100.00
56928;BME280;60850;52.502;13.426;2023-05-24T02:03:00;101364.41;;;11.56;100.00
56928;BME280;60850;52.502;13.426;2023-05-24T02:05:27;101363.56;;;11.52;100.00
56928;BME280;60850;52.502;13.426;2023-05-24T02:07:54;101363.56;;;11.52;100.00
56928;BME280;60850;52.502;13.426;2023-05-24T02:10:21;101362.63;;;11.55;100.00
56928;BME280;60850;52.502;13.426;2023-05-24T02:12:48;101358.16;;;11.55;100.00
56928;BME280;60850;52.502;13.426;2023-05-24T02:15:15;101362.59;;;11.57;100.00
56928;BME280;60850;52.502;13.426;2023-05-24T02:17:43;101368.78;;;11.59;100.00
56928;BME280;60850;52.502;13.426;2023-05-24T02:20:11;101363.44;;;11.59;100.00
56928;BME280;60850;52.502;13.426;2023-05-24T02:22:38;101358.09;;;11.59;100.00
56928;BME280;60850;52.502;13.426;2023-05-24T02:25:06;101357.22;;;11.58;100.00
56928;BME280;60850;52.502;13.426;2023-05-24T02:27:32;101352.75;;;11.59;100.00
56928;BME280;60850;52.502;13.426;2023-05-24T02:29:59;101358.97;;;11.59;100.00
56928;BME280;60850;52.502;13.426;2023-05-24T02:32:26;101358.94;;;11.61;100.00
56928;BME280;60850;52.502;13.426;2023-05-24T02:34:55;101361.56;;;11.64;100.00
56928;BME280;60850;52.502;13.426;2023-05-24T02:37:23;101360.63;;;11.66;100.00
56928;BME280;60850;52.502;13.426;2023-05-24T02:39:50;101358.81;;;11.67;100.00
56928;BME280;60850;52.502;13.426;2023-05-24T02:42:17;101355.31;;;11.65;100.00
56928;BME280;60850;52.502;13.426;2023-05-24T02:44:44;101350.00;;;11.63;100.00
56928;BME280;60850;52.502;13.426;2023-05-24T02:47:13;101359.78;;;11.63;100.00
56928;BME280;60850;52.502;13.426;2023-05-24T02:49:40;101350.88;;;11.62;100.00
56928;BME280;60850;52.502;13.426;2023-05-24T02:52:08;101357.19;;;11.60;100.00
56928;BME280;60850;52.502;13.426;2023-05-24T02:54:35;101360.81;;;11.55;100.00
56928;BME280;60850;52.502;13.426;2023-05-24T02:57:02;101353.72;;;11.56;100.00
56928;BME280;60850;52.502;13.426;2023-05-24T02:59:31;101363.50;;;11.55;100.00
56928;BME280;60850;52.502;13.426;2023-05-24T03:01:58;101363.56;;;11.52;100.00
56928;BME280;60850;52.502;13.426;2023-05-24T03:04:25;101361.72;;;11.54;100.00
56928;BME280;60850;52.502;13.426;2023-05-24T03:06:52;101367.06;;;11.54;100.00
56928;BME280;60850;52.502;13.426;2023-05-24T03:09:21;101359.06;;;11.56;100.00
56928;BME280;60850;52.502;13.426;2023-05-24T03:11:47;101365.31;;;11.53;100.00
56928;BME280;60850;52.502;13.426;2023-05-24T03:14:14;101370.66;;;11.53;100.00
56928;BME280;60850;52.502;13.426;2023-05-24T03:16:41;101366.16;;;11.55;100.00
56928;BME280;60850;52.502;13.426;2023-05-24T03:19:08;101369.78;;;11.53;100.00
56928;BME280;60850;52.502;13.426;2023-05-24T03:21:35;101360.94;;;11.51;100.00
56928;BME280;60850;52.502;13.426;2023-05-24T03:24:02;101368.91;;;11.52;100.00
56928;BME280;60850;52.502;13.426;2023-05-24T03:26:31;101369.78;;;11.53;100.00
56928;BME280;60850;52.502;13.426;2023-05-24T03:28:58;101368.06;;;11.50;100.00
56928;BME280;60850;52.502;13.426;2023-05-24T03:31:25;101371.63;;;11.51;100.00
56928;BME280;60850;52.502;13.426;2023-05-24T03:33:52;101370.66;;;11.53;100.00
56928;BME280;60850;52.502;13.426;2023-05-24T03:36:19;101364.44;;;11.53;100.00
56928;BME280;60850;52.502;13.426;2023-05-24T03:38:47;101369.69;;;11.58;100.00
56928;BME280;60850;52.502;13.426;2023-05-24T03:41:13;101368.72;;;11.62;100.00
56928;BME280;60850;52.502;13.426;2023-05-24T03:43:42;101366.91;;;11.64;100.00
56928;BME280;60850;52.502;13.426;2023-05-24T03:46:09;101379.38;;;11.63;100.00
56928;BME280;60850;52.502;13.426;2023-05-24T03:48:36;101373.13;;;11.64;100.00
56928;BME280;60850;52.502;13.426;2023-05-24T03:51:03;101375.75;;;11.66;100.00
56928;BME280;60850;52.502;13.426;2023-05-24T03:53:30;101375.72;;;11.67;100.00
56928;BME280;60850;52.502;13.426;2023-05-24T03:55:57;101389.94;;;11.68;100.00
56928;BME280;60850;52.502;13.426;2023-05-24T03:58:24;101388.06;;;11.73;100.00
56928;BME280;60850;52.502;13.426;2023-05-24T04:00:52;101379.09;;;11.77;100.00
56928;BME280;60850;52.502;13.426;2023-05-24T04:03:19;101377.19;;;11.83;100.00
56928;BME280;60850;52.502;13.426;2023-05-24T04:05:46;101375.25;;;11.90;100.00
56928;BME280;60850;52.502;13.426;2023-05-24T04:08:13;101380.50;;;11.95;100.00
56928;BME280;60850;52.502;13.426;2023-05-24T04:10:40;101387.56;;;11.97;100.00
56928;BME280;60850;52.502;13.426;2023-05-24T04:13:07;101389.28;;;12.01;100.00
56928;BME280;60850;52.502;13.426;2023-05-24T04:15:34;101388.31;;;12.05;100.00
56928;BME280;60850;52.502;13.426;2023-05-24T04:18:04;101381.91;;;12.11;100.00
56928;BME280;60850;52.502;13.426;2023-05-24T04:20:31;101395.22;;;12.14;100.00
56928;BME280;60850;52.502;13.426;2023-05-24T04:22:58;101389.75;;;12.19;100.00
56928;BME280;60850;52.502;13.426;2023-05-24T04:25:25;101389.75;;;12.19;100.00
56928;BME280;60850;52.502;13.426;2023-05-24T04:27:52;101391.56;;;12.20;100.00
56928;BME280;60850;52.502;13.426;2023-05-24T04:30:20;101399.63;;;12.17;100.00
56928;BME280;60850;52.502;13.426;2023-05-24T04:32:47;101399.56;;;12.20;100.00
56928;BME280;60850;52.502;13.426;2023-05-24T04:35:16;101401.19;;;12.25;100.00
56928;BME280;60850;52.502;13.426;2023-05-24T04:37:44;101393.13;;;12.28;100.00
56928;BME280;60850;52.502;13.426;2023-05-24T04:40:12;101395.66;;;12.33;100.00
56928;BME280;60850;52.502;13.426;2023-05-24T04:42:41;101401.84;;;12.36;100.00
56928;BME280;60850;52.502;13.426;2023-05-24T04:45:08;101399.13;;;12.38;100.00
56928;BME280;60850;52.502;13.426;2023-05-24T04:47:36;101407.09;;;12.41;100.00
56928;BME280;60850;52.502;13.426;2023-05-24T04:50:03;101407.06;;;12.43;100.00
56928;BME280;60850;52.502;13.426;2023-05-24T04:52:32;101408.81;;;12.44;100.00
56928;BME280;60850;52.502;13.426;2023-05-24T04:55:01;101412.28;;;12.47;100.00
56928;BME280;60850;52.502;13.426;2023-05-24T04:57:28;101415.81;;;12.49;100.00
56928;BME280;60850;52.502;13.426;2023-05-24T04:59:55;101418.44;;;12.51;100.00
56928;BME280;60850;52.502;13.426;2023-05-24T05:02:22;101422.91;;;12.50;100.00
56928;BME280;60850;52.502;13.426;2023-05-24T05:04:51;101421.13;;;12.51;100.00
56928;BME280;60850;52.502;13.426;2023-05-24T05:07:18;101433.53;;;12.53;100.00
56928;BME280;60850;52.502;13.426;2023-05-24T05:09:46;101434.31;;;12.58;100.00
56928;BME280;60850;52.502;13.426;2023-05-24T05:12:13;101432.47;;;12.60;100.00
56928;BME280;60850;52.502;13.426;2023-05-24T05:14:40;101435.91;;;12.65;100.00
56928;BME280;60850;52.502;13.426;2023-05-24T05:17:07;101442.16;;;12.66;100.00
56928;BME280;60850;52.502;13.426;2023-05-24T05:19:34;101440.34;;;12.67;100.00
56928;BME280;60850;52.502;13.426;2023-05-24T05:22:01;101437.66;;;12.67;100.00
56928;BME280;60850;52.502;13.426;2023-05-24T05:24:28;101443.91;;;12.67;100.00
56928;BME280;60850;52.502;13.426;2023-05-24T05:26:57;101447.41;;;12.71;100.00
56928;BME280;60850;52.502;13.426;2023-05-24T05:29:24;101446.38;;;12.75;100.00
56928;BME280;60850;52.502;13.426;2023-05-24T05:31:51;101443.56;;;12.81;100.00
56928;BME280;60850;52.502;13.426;2023-05-24T05:34:18;101459.63;;;12.81;100.00
56928;BME280;60850;52.502;13.426;2023-05-24T05:36:45;101459.78;;;12.75;100.00
56928;BME280;60850;52.502;13.426;2023-05-24T05:39:12;101457.31;;;12.65;100.00
56928;BME280;60850;52.502;13.426;2023-05-24T05:41:40;101462.56;;;12.70;100.00
56928;BME280;60850;52.502;13.426;2023-05-24T05:44:10;101464.13;;;12.79;100.00
56928;BME280;60850;52.502;13.426;2023-05-24T05:46:37;101467.44;;;12.90;100.00
56928;BME280;60850;52.502;13.426;2023-05-24T05:49:05;101466.34;;;12.99;100.00
56928;BME280;60850;52.502;13.426;2023-05-24T05:51:32;101476.75;;;13.09;100.00
56928;BME280;60850;52.502;13.426;2023-05-24T05:53:59;101472.19;;;13.14;100.00
56928;BME280;60850;52.502;13.426;2023-05-24T05:56:26;101479.06;;;13.26;100.00
56928;BME280;60850;52.502;13.426;2023-05-24T05:58:53;101478.50;;;13.46;100.00
56928;BME280;60850;52.502;13.426;2023-05-24T06:01:24;101480.66;;;13.67;99.04
56928;BME280;60850;52.502;13.426;2023-05-24T06:03:51;101480.88;;;13.91;97.85
56928;BME280;60850;52.502;13.426;2023-05-24T06:06:18;101475.72;;;14.14;98.63
56928;BME280;60850;52.502;13.426;2023-05-24T06:08:45;101477.06;;;14.29;96.74
56928;BME280;60850;52.502;13.426;2023-05-24T06:11:12;101476.81;;;14.37;95.57
56928;BME280;60850;52.502;13.426;2023-05-24T06:13:38;101490.97;;;14.42;93.51
56928;BME280;60850;52.502;13.426;2023-05-24T06:16:05;101484.69;;;14.43;93.10
56928;BME280;60850;52.502;13.426;2023-05-24T06:18:35;101494.78;;;14.35;94.29
56928;BME280;60850;52.502;13.426;2023-05-24T06:21:03;101488.84;;;14.23;97.34
56928;BME280;60850;52.502;13.426;2023-05-24T06:23:29;101496.06;;;14.21;98.73
56928;BME280;60850;52.502;13.426;2023-05-24T06:25:57;101484.44;;;14.21;97.54
56928;BME280;60850;52.502;13.426;2023-05-24T06:28:25;101492.44;;;14.22;98.74
56928;BME280;60850;52.502;13.426;2023-05-24T06:30:53;101495.13;;;14.22;98.85
56928;BME280;60850;52.502;13.426;2023-05-24T06:33:19;101493.31;;;14.24;100.00
56928;BME280;60850;52.502;13.426;2023-05-24T06:35:48;101490.97;;;14.42;98.09
56928;BME280;60850;52.502;13.426;2023-05-24T06:38:15;101495.78;;;14.62;95.71
56928;BME280;60850;52.502;13.426;2023-05-24T06:40:42;101498.91;;;14.76;94.16
56928;BME280;60850;52.502;13.426;2023-05-24T06:43:09;101509.38;;;14.83;93.20
56928;BME280;60850;52.502;13.426;2023-05-24T06:45:36;101504.34;;;15.01;91.90
56928;BME280;60850;52.502;13.426;2023-05-24T06:48:03;101509.63;;;15.04;91.53
56928;BME280;60850;52.502;13.426;2023-05-24T06:50:30;101523.69;;;15.12;90.26
56928;BME280;60850;52.502;13.426;2023-05-24T06:52:58;101526.38;;;15.12;91.28
56928;BME280;60850;52.502;13.426;2023-05-24T06:55:27;101528.13;;;15.13;92.19
56928;BME280;60850;52.502;13.426;2023-05-24T06:57:54;101525.19;;;15.21;90.28
56928;BME280;60850;52.502;13.426;2023-05-24T07:00:21;101531.41;;;15.23;89.48
56928;BME280;60850;52.502;13.426;2023-05-24T07:02:48;101540.34;;;15.23;88.71
56928;BME280;60850;52.502;13.426;2023-05-24T07:05:16;101540.13;;;15.29;100.00
56928;BME280;60850;52.502;13.426;2023-05-24T07:07:43;101532.28;;;15.23;98.85
56928;BME280;60850;52.502;13.426;2023-05-24T07:10:12;101531.75;;;15.12;93.72
56928;BME280;60850;52.502;13.426;2023-05-24T07:12:39;101529.44;;;15.00;90.16
56928;BME280;60850;52.502;13.426;2023-05-24T07:15:07;101532.47;;;15.17;88.93
56928;BME280;60850;52.502;13.426;2023-05-24T07:17:34;101535.19;;;15.44;87.47
56928;BME280;60850;52.502;13.426;2023-05-24T07:20:01;101540.72;;;15.65;85.13
56928;BME280;60850;52.502;13.426;2023-05-24T07:22:31;101547.19;;;15.85;82.65
56928;BME280;60850;52.502;13.426;2023-05-24T07:24:58;101546.41;;;16.06;81.92
56928;BME280;60850;52.502;13.426;2023-05-24T07:27:26;101550.25;;;16.24;80.63
56928;BME280;60850;52.502;13.426;2023-05-24T07:29:53;101545.59;;;16.29;79.16
56928;BME280;60850;52.502;13.426;2023-05-24T07:32:20;101550.03;;;16.30;79.12
56928;BME280;60850;52.502;13.426;2023-05-24T07:34:47;101549.44;;;16.45;78.96
56928;BME280;60850;52.502;13.426;2023-05-24T07:37:14;101550.75;;;16.59;75.34
56928;BME280;60850;52.502;13.426;2023-05-24T07:39:42;101559.69;;;16.83;72.63
56928;BME280;60850;52.502;13.426;2023-05-24T07:42:09;101562.63;;;17.00;71.95
56928;BME280;60850;52.502;13.426;2023-05-24T07:44:37;101560.09;;;17.17;70.95
56928;BME280;60850;52.502;13.426;2023-05-24T07:47:05;101561.97;;;17.37;70.21
56928;BME280;60850;52.502;13.426;2023-05-24T07:49:32;101564.53;;;17.62;66.89
56928;BME280;60850;52.502;13.426;2023-05-24T07:51:58;101567.59;;;17.75;65.64
56928;BME280;60850;52.502;13.426;2023-05-24T07:54:25;101570.38;;;17.73;65.17
56928;BME280;60850;52.502;13.426;2023-05-24T07:56:52;101574.41;;;17.62;66.18
56928;BME280;60850;52.502;13.426;2023-05-24T07:59:19;101577.41;;;17.55;66.75
56928;BME280;60850;52.502;13.426;2023-05-24T08:01:48;101578.00;;;17.40;67.01
56928;BME280;60850;52.502;13.426;2023-05-24T08:04:15;101580.16;;;17.32;66.60
56928;BME280;60850;52.502;13.426;2023-05-24T08:06:42;101581.56;;;17.20;67.16
56928;BME280;60850;52.502;13.426;2023-05-24T08:09:11;101579.50;;;17.27;67.05
56928;BME280;60850;52.502;13.426;2023-05-24T08:11:37;101576.78;;;17.27;66.86
56928;BME280;60850;52.502;13.426;2023-05-24T08:14:04;101577.03;;;17.21;67.38
56928;BME280;60850;52.502;13.426;2023-05-24T08:16:31;101580.03;;;17.13;68.29
56928;BME280;60850;52.502;13.426;2023-05-24T08:19:00;101586.88;;;17.00;69.07
56928;BME280;60850;52.502;13.426;2023-05-24T08:21:26;101584.78;;;16.85;69.59
56928;BME280;60850;52.502;13.426;2023-05-24T08:23:53;101593.38;;;16.71;71.24
56928;BME280;60850;52.502;13.426;2023-05-24T08:26:21;101596.66;;;16.54;72.01
56928;BME280;60850;52.502;13.426;2023-05-24T08:28:49;101596.38;;;16.38;73.86
56928;BME280;60850;52.502;13.426;2023-05-24T08:31:15;101592.53;;;16.20;74.22
56928;BME280;60850;52.502;13.426;2023-05-24T08:33:43;101591.25;;;16.07;75.95
56928;BME280;60850;52.502;13.426;2023-05-24T08:36:11;101594.34;;;15.95;77.39
56928;BME280;60850;52.502;13.426;2023-05-24T08:38:38;101592.63;;;15.92;79.86
56928;BME280;60850;52.502;13.426;2023-05-24T08:41:05;101599.28;;;15.82;79.88
56928;BME280;60850;52.502;13.426;2023-05-24T08:43:33;101599.75;;;15.69;79.94
56928;BME280;60850;52.502;13.426;2023-05-24T08:46:01;101602.63;;;15.62;80.93
56928;BME280;60850;52.502;13.426;2023-05-24T08:48:29;101602.63;;;15.62;81.91
56928;BME280;60850;52.502;13.426;2023-05-24T08:50:57;101605.19;;;15.67;81.48
56928;BME280;60850;52.502;13.426;2023-05-24T08:53:25;101606.19;;;15.63;80.97
56928;BME280;60850;52.502;13.426;2023-05-24T08:55:53;101608.81;;;15.66;80.92
56928;BME280;60850;52.502;13.426;2023-05-24T08:58:21;101613.53;;;15.58;81.19
56928;BME280;60850;52.502;13.426;2023-05-24T09:00:48;101620.50;;;15.63;81.51
56928;BME280;60850;52.502;13.426;2023-05-24T09:03:16;101622.13;;;15.69;83.36
56928;BME280;60850;52.502;13.426;2023-05-24T09:05:44;101621.00;;;15.76;82.64
56928;BME280;60850;52.502;13.426;2023-05-24T09:08:11;101626.22;;;15.81;82.84
56928;BME280;60850;52.502;13.426;2023-05-24T09:10:43;101623.22;;;15.90;80.03
56928;BME280;60850;52.502;13.426;2023-05-24T09:13:11;101625.63;;;15.98;78.49
56928;BME280;60850;52.502;13.426;2023-05-24T09:15:38;101624.41;;;16.08;76.99
56928;BME280;60850;52.502;13.426;2023-05-24T09:18:05;101625.75;;;16.19;76.93
56928;BME280;60850;52.502;13.426;2023-05-24T09:20:32;101623.84;;;16.23;76.25
56928;BME280;60850;52.502;13.426;2023-05-24T09:23:01;101627.13;;;16.31;76.10
56928;BME280;60850;52.502;13.426;2023-05-24T09:25:29;101627.84;;;16.36;76.30
56928;BME280;60850;52.502;13.426;2023-05-24T09:27:57;101619.31;;;16.48;75.43
56928;BME280;60850;52.502;13.426;2023-05-24T09:30:24;101620.59;;;16.62;74.46
56928;BME280;60850;52.502;13.426;2023-05-24T09:32:56;101619.97;;;16.80;72.07
56928;BME280;60850;52.502;13.426;2023-05-24T09:35:23;101620.47;;;16.90;70.27
56928;BME280;60850;52.502;13.426;2023-05-24T09:37:53;101619.94;;;17.03;67.19
56928;BME280;60850;52.502;13.426;2023-05-24T09:40:22;101614.63;;;17.24;66.03
56928;BME280;60850;52.502;13.426;2023-05-24T09:43:06;101615.88;;;17.59;65.31
56928;BME280;60850;52.502;13.426;2023-05-24T09:45:40;101621.09;;;17.86;63.75
56928;BME280;60850;52.502;13.426;2023-05-24T09:48:10;101620.91;;;17.90;61.84
56928;BME280;60850;52.502;13.426;2023-05-24T09:50:37;101626.66;;;17.81;62.10
56928;BME280;60850;52.502;13.426;2023-05-24T09:53:04;101621.59;;;17.73;62.38
56928;BME280;60850;52.502;13.426;2023-05-24T09:55:35;101631.03;;;17.62;63.11
56928;BME280;60850;52.502;13.426;2023-05-24T09:58:04;101633.31;;;17.50;63.58
56928;BME280;60850;52.502;13.426;2023-05-24T10:00:33;101636.75;;;17.32;64.62
56928;BME280;60850;52.502;13.426;2023-05-24T10:03:02;101640.13;;;17.15;64.87
56928;BME280;60850;52.502;13.426;2023-05-24T10:05:31;101638.94;;;17.00;64.64
56928;BME280;60850;52.502;13.426;2023-05-24T10:07:58;101644.91;;;16.85;66.00
56928;BME280;60850;52.502;13.426;2023-05-24T10:10:28;101645.94;;;16.81;66.20
56928;BME280;60850;52.502;13.426;2023-05-24T10:12:55;101643.97;;;16.86;65.14
56928;BME280;60850;52.502;13.426;2023-05-24T10:15:24;101647.75;;;17.04;63.70
56928;BME280;60850;52.502;13.426;2023-05-24T10:17:53;101644.66;;;17.15;62.94
56928;BME280;60850;52.502;13.426;2023-05-24T10:20:20;101643.00;;;17.34;61.22
56928;BME280;60850;52.502;13.426;2023-05-24T10:22:51;101640.56;;;17.72;60.09
56928;BME280;60850;52.502;13.426;2023-05-24T10:25:21;101646.13;;;18.09;58.63
56928;BME280;60850;52.502;13.426;2023-05-24T10:27:53;101643.94;;;18.39;57.44
56928;BME280;60850;52.502;13.426;2023-05-24T10:30:28;101640.84;;;18.67;56.20
56928;BME280;60850;52.502;13.426;2023-05-24T10:32:58;101644.81;;;18.79;54.59
56928;BME280;60850;52.502;13.426;2023-05-24T10:35:27;101636.53;;;18.84;54.52
56928;BME280;60850;52.502;13.426;2023-05-24T10:37:55;101643.38;;;18.91;54.61
56928;BME280;60850;52.502;13.426;2023-05-24T10:40:22;101636.88;;;19.33;53.33
56928;BME280;60850;52.502;13.426;2023-05-24T10:42:51;101643.38;;;19.84;51.49
56928;BME280;60850;52.502;13.426;2023-05-24T10:45:31;101651.28;;;20.40;49.62
56928;BME280;60850;52.502;13.426;2023-05-24T10:48:06;101647.66;;;20.74;48.20
56928;BME280;60850;52.502;13.426;2023-05-24T10:50:33;101644.13;;;21.21;47.13
56928;BME280;60850;52.502;13.426;2023-05-24T10:53:11;101649.25;;;21.43;45.01
56928;BME280;60850;52.502;13.426;2023-05-24T10:55:52;101651.53;;;21.51;44.88
56928;BME280;60850;52.502;13.426;2023-05-24T10:58:19;101655.44;;;21.61;44.34
56928;BME280;60850;52.502;13.426;2023-05-24T11:00:50;101655.66;;;21.58;44.03
56928;BME280;60850;52.502;13.426;2023-05-24T11:03:18;101651.09;;;21.58;44.30
56928;BME280;60850;52.502;13.426;2023-05-24T11:05:50;101651.50;;;21.66;43.96
56928;BME280;60850;52.502;13.426;2023-05-24T11:08:23;101647.56;;;21.56;43.05
56928;BME280;60850;52.502;13.426;2023-05-24T11:10:50;101654.59;;;21.45;43.53
56928;BME280;60850;52.502;13.426;2023-05-24T11:13:29;101647.28;;;21.13;44.02
56928;BME280;60850;52.502;13.426;2023-05-24T11:15:57;101644.63;;;20.80;44.34
56928;BME280;60850;52.502;13.426;2023-05-24T11:18:25;101654.38;;;20.50;45.28
56928;BME280;60850;52.502;13.426;2023-05-24T11:20:52;101653.03;;;20.24;45.81
56928;BME280;60850;52.502;13.426;2023-05-24T11:23:19;101648.25;;;19.94;46.69
56928;BME280;60850;52.502;13.426;2023-05-24T11:25:46;101655.06;;;19.67;48.05
56928;BME280;60850;52.502;13.426;2023-05-24T11:28:14;101651.22;;;19.52;49.00
56928;BME280;60850;52.502;13.426;2023-05-24T11:30:41;101650.91;;;19.41;50.36
56928;BME280;60850;52.502;13.426;2023-05-24T11:33:15;101650.81;;;19.24;50.17
56928;BME280;60850;52.502;13.426;2023-05-24T11:35:43;101651.78;;;19.23;50.47
56928;BME280;60850;52.502;13.426;2023-05-24T11:38:10;101656.22;;;19.24;50.59
56928;BME280;60850;52.502;13.426;2023-05-24T11:40:40;101649.25;;;19.19;50.08
56928;BME280;60850;52.502;13.426;2023-05-24T11:43:11;101652.97;;;19.17;50.32
56928;BME280;60850;52.502;13.426;2023-05-24T11:45:40;101649.94;;;19.23;50.60
56928;BME280;60850;52.502;13.426;2023-05-24T11:48:08;101653.47;;;19.25;50.29
56928;BME280;60850;52.502;13.426;2023-05-24T11:50:41;101652.00;;;19.37;50.39
56928;BME280;60850;52.502;13.426;2023-05-24T11:53:09;101652.84;;;19.56;50.36
56928;BME280;60850;52.502;13.426;2023-05-24T11:55:36;101655.47;;;19.59;49.06
56928;BME280;60850;52.502;13.426;2023-05-24T11:58:09;101659.81;;;19.62;48.44
56928;BME280;60850;52.502;13.426;2023-05-24T12:00:37;101652.75;;;19.59;48.74
56928;BME280;60850;52.502;13.426;2023-05-24T12:03:04;101655.66;;;19.73;47.96
56928;BME280;60850;52.502;13.426;2023-05-24T12:05:34;101662.34;;;19.84;47.71
56928;BME280;60850;52.502;13.426;2023-05-24T12:08:05;101662.91;;;19.90;47.73
56928;BME280;60850;52.502;13.426;2023-05-24T12:10:33;101666.16;;;19.97;47.30
56928;BME280;60850;52.502;13.426;2023-05-24T12:13:01;101660.03;;;19.57;45.91
56928;BME280;60850;52.502;13.426;2023-05-24T12:15:29;101663.41;;;19.06;48.96
56928;BME280;60850;52.502;13.426;2023-05-24T12:17:57;101663.25;;;18.90;50.04
56928;BME280;60850;52.502;13.426;2023-05-24T12:20:26;101667.19;;;18.83;50.01
56928;BME280;60850;52.502;13.426;2023-05-24T12:22:54;101662.41;;;18.69;48.70
56928;BME280;60850;52.502;13.426;2023-05-24T12:25:23;101661.72;;;18.64;49.68
56928;BME280;60850;52.502;13.426;2023-05-24T12:27:52;101664.59;;;18.59;49.85
56928;BME280;60850;52.502;13.426;2023-05-24T12:30:21;101661.97;;;18.58;49.61
56928;BME280;60850;52.502;13.426;2023-05-24T12:32:49;101651.34;;;18.55;50.22
56928;BME280;60850;52.502;13.426;2023-05-24T12:35:16;101658.94;;;18.45;51.33
56928;BME280;60850;52.502;13.426;2023-05-24T12:37:44;101664.97;;;18.31;52.23
56928;BME280;60850;52.502;13.426;2023-05-24T12:40:15;101664.22;;;18.28;53.21